createdAt,value
2018-02-21T00:00:10.499Z,68.10
2018-02-21T00:02:39.112Z,82.50
2018-02-21T00:05:06.905Z,77.78
2018-02-21T00:07:34.656Z,79.30
2018-02-21T00:10:03.303Z,74.93
2018-02-21T00:12:31.655Z,67.33
2018-02-21T00:15:01.623Z,73.15
2018-02-21T00:17:30.012Z,63.28
2018-02-21T00:19:58.461Z,65.60
2018-02-21T00:22:27.913Z,67.73
2018-02-21T00:24:55.705Z,60.40
2018-02-21T00:27:23.254Z,66.12
2018-02-21T00:29:50.769Z,62.20
2018-02-21T00:32:18.335Z,65.05
2018-02-21T00:34:45.875Z,59.93
2018-02-21T00:37:13.444Z,65.13
2018-02-21T00:39:40.974Z,61.53
2018-02-21T00:42:08.527Z,67.93
2018-02-21T00:44:36.086Z,65.67
2018-02-21T00:47:03.656Z,62.27
2018-02-21T00:49:31.188Z,62.33
2018-02-21T00:51:58.715Z,63.17
2018-02-21T00:54:26.295Z,54.63
2018-02-21T00:56:53.828Z,61.17
2018-02-21T00:59:21.502Z,62.77
2018-02-21T01:01:49.035Z,65.37
2018-02-21T01:04:16.593Z,57.50
2018-02-21T01:06:44.123Z,57.53
2018-02-21T01:09:11.696Z,64.03
2018-02-21T01:11:39.208Z,59.60
2018-02-21T01:14:06.781Z,66.57
2018-02-21T01:16:34.300Z,58.55
2018-02-21T01:19:01.861Z,61.33
2018-02-21T01:21:29.402Z,61.90
2018-02-21T01:23:56.966Z,62.03
2018-02-21T01:26:24.517Z,61.13
2018-02-21T01:28:52.068Z,69.70
2018-02-21T01:31:19.597Z,61.13
2018-02-21T01:33:47.170Z,63.33
2018-02-21T01:36:14.700Z,72.10
2018-02-21T01:38:42.238Z,120.67
2018-02-21T01:41:09.793Z,84.80
2018-02-21T01:43:37.332Z,78.68
2018-02-21T01:46:04.878Z,67.03
2018-02-21T01:48:32.411Z,66.60
2018-02-21T01:50:59.963Z,63.67
2018-02-21T01:53:27.488Z,62.05
2018-02-21T01:55:55.052Z,66.40
2018-02-21T01:58:22.601Z,68.03
2018-02-21T02:00:50.175Z,62.17
2018-02-21T02:03:17.730Z,62.45
2018-02-21T02:05:45.298Z,66.47
2018-02-21T02:08:12.822Z,66.03
2018-02-21T02:10:40.397Z,66.20
2018-02-21T02:13:07.930Z,66.83
2018-02-21T02:15:35.492Z,65.73
2018-02-21T02:18:03.074Z,68.43
2018-02-21T02:20:31.298Z,67.12
2018-02-21T02:22:58.860Z,69.20
2018-02-21T02:25:26.422Z,64.73
2018-02-21T02:27:53.978Z,63.87
2018-02-21T02:30:21.495Z,70.57
2018-02-21T02:32:49.064Z,70.20
2018-02-21T02:35:16.604Z,69.72
2018-02-21T02:37:44.236Z,67.43
2018-02-21T02:40:11.727Z,65.87
2018-02-21T02:42:39.279Z,70.10
2018-02-21T02:45:06.833Z,63.10
2018-02-21T02:47:34.397Z,62.90
2018-02-21T02:50:01.927Z,61.97
2018-02-21T02:52:29.485Z,65.20
2018-02-21T02:54:57.050Z,61.97
2018-02-21T02:57:24.615Z,66.80
2018-02-21T02:59:52.186Z,64.37
2018-02-21T03:02:19.755Z,62.77
2018-02-21T03:04:47.283Z,61.90
2018-02-21T03:07:14.836Z,66.60
2018-02-21T03:09:42.355Z,61.42
2018-02-21T03:12:09.876Z,61.75
2018-02-21T03:14:37.430Z,61.00
2018-02-21T03:17:04.971Z,63.30
2018-02-21T03:19:32.545Z,65.07
2018-02-21T03:22:00.076Z,68.70
2018-02-21T03:24:27.631Z,66.12
2018-02-21T03:26:55.170Z,66.63
2018-02-21T03:29:22.737Z,68.23
2018-02-21T03:31:50.275Z,71.27
2018-02-21T03:34:18.108Z,67.03
2018-02-21T03:36:45.711Z,72.07
2018-02-21T03:39:13.294Z,76.70
2018-02-21T03:41:40.887Z,71.97
2018-02-21T03:44:08.408Z,74.00
2018-02-21T03:46:35.991Z,67.90
2018-02-21T03:49:03.502Z,67.13
2018-02-21T03:51:31.650Z,65.45
2018-02-21T03:53:59.167Z,65.40
2018-02-21T03:56:26.730Z,66.53
2018-02-21T03:58:54.280Z,68.47
2018-02-21T04:01:21.859Z,66.10
2018-02-21T04:03:49.404Z,64.40
2018-02-21T04:06:16.996Z,64.57
2018-02-21T04:08:44.539Z,65.78
2018-02-21T04:11:12.067Z,61.57
2018-02-21T04:13:39.632Z,62.95
2018-02-21T04:16:07.152Z,60.23
2018-02-21T04:18:34.732Z,56.50
2018-02-21T04:21:02.246Z,59.40
2018-02-21T04:23:29.803Z,65.40
2018-02-21T04:25:57.336Z,60.90
2018-02-21T04:28:24.887Z,62.90
2018-02-21T04:30:52.434Z,60.73
2018-02-21T04:33:20.374Z,60.97
2018-02-21T04:35:47.907Z,63.08
2018-02-21T04:38:15.440Z,63.90
2018-02-21T04:40:42.996Z,67.03
2018-02-21T04:43:10.530Z,66.97
2018-02-21T04:45:38.112Z,64.05
2018-02-21T04:48:05.627Z,64.23
2018-02-21T04:50:33.176Z,63.47
2018-02-21T04:53:00.689Z,65.50
2018-02-21T04:55:33.922Z,62.27
2018-02-21T04:58:07.165Z,63.80
2018-02-21T05:00:34.715Z,63.33
2018-02-21T05:03:02.243Z,64.23
2018-02-21T05:05:30.226Z,63.17
2018-02-21T05:07:57.774Z,66.63
2018-02-21T05:10:25.296Z,66.93
2018-02-21T05:12:52.846Z,63.10
2018-02-21T05:15:20.356Z,72.47
2018-02-21T05:17:47.904Z,75.80
2018-02-21T05:20:15.437Z,79.17
2018-02-21T05:22:43.008Z,77.73
2018-02-21T05:25:10.539Z,78.10
2018-02-21T05:27:38.457Z,78.03
2018-02-21T05:30:05.981Z,75.10
2018-02-21T05:32:33.930Z,68.40
2018-02-21T05:35:01.488Z,74.00
2018-02-21T05:37:29.023Z,74.77
2018-02-21T05:39:56.584Z,72.77
2018-02-21T05:42:24.102Z,59.90
2018-02-21T05:44:51.681Z,62.03
2018-02-21T05:47:19.211Z,62.63
2018-02-21T05:49:46.766Z,63.13
2018-02-21T05:52:14.311Z,67.50
2018-02-21T05:54:41.867Z,59.38
2018-02-21T05:57:09.384Z,65.85
2018-02-21T05:59:36.944Z,73.03
2018-02-21T06:02:04.479Z,71.20
2018-02-21T06:04:32.017Z,70.17
2018-02-21T06:06:59.581Z,69.10
2018-02-21T06:09:27.103Z,69.53
2018-02-21T06:11:54.661Z,69.77
2018-02-21T06:14:22.185Z,75.70
2018-02-21T06:16:49.762Z,73.20
2018-02-21T06:19:17.292Z,70.20
2018-02-21T06:21:44.861Z,67.30
2018-02-21T06:24:12.380Z,65.27
2018-02-21T06:26:39.957Z,64.50
2018-02-21T06:29:07.498Z,60.93
2018-02-21T06:31:35.064Z,51.55
2018-02-21T06:34:02.591Z,58.83
2018-02-21T06:36:30.184Z,55.87
2018-02-21T06:38:59.643Z,59.83
2018-02-21T06:41:27.172Z,57.27
2018-02-21T06:43:54.808Z,66.27
2018-02-21T06:46:22.332Z,60.28
2018-02-21T06:48:49.980Z,60.63
2018-02-21T06:51:17.515Z,66.70
2018-02-21T06:53:45.072Z,67.53
2018-02-21T06:56:12.623Z,68.30
2018-02-21T06:58:40.175Z,75.17
2018-02-21T07:01:07.719Z,75.77
2018-02-21T07:03:35.281Z,72.57
2018-02-21T07:06:02.828Z,88.53
2018-02-21T07:08:30.384Z,84.20
2018-02-21T07:10:57.933Z,88.17
2018-02-21T07:13:25.491Z,88.30
2018-02-21T07:15:53.015Z,82.73
2018-02-21T07:18:20.572Z,93.37
2018-02-21T07:20:48.108Z,91.83
2018-02-21T07:23:15.684Z,88.80
2018-02-21T07:25:43.199Z,85.90
2018-02-21T07:28:10.718Z,88.53
2018-02-21T07:30:38.284Z,80.13
2018-02-21T07:33:05.862Z,86.25
2018-02-21T07:35:33.421Z,82.50
2018-02-21T07:38:00.955Z,83.20
2018-02-21T07:40:28.527Z,74.00
2018-02-21T07:42:56.062Z,76.97
2018-02-21T07:45:23.636Z,78.17
2018-02-21T07:47:51.159Z,77.17
2018-02-21T07:50:18.719Z,78.70
2018-02-21T07:52:46.256Z,78.73
2018-02-21T07:55:13.814Z,76.00
2018-02-21T07:57:41.332Z,71.57
2018-02-21T08:00:08.888Z,95.53
2018-02-21T08:02:36.405Z,90.50
2018-02-21T08:05:03.970Z,81.07
2018-02-21T08:07:31.534Z,74.97
2018-02-21T08:09:59.047Z,74.40
2018-02-21T08:12:26.596Z,80.63
2018-02-21T08:14:54.124Z,80.63
2018-02-21T08:17:21.685Z,78.93
2018-02-21T08:19:49.214Z,75.37
2018-02-21T08:22:16.869Z,84.07
2018-02-21T08:24:44.406Z,73.97
2018-02-21T08:27:11.983Z,75.97
2018-02-21T08:29:39.531Z,74.13
2018-02-21T08:32:07.086Z,80.35
2018-02-21T08:34:34.703Z,83.13
2018-02-21T08:37:02.223Z,82.10
2018-02-21T08:39:29.831Z,78.32
2018-02-21T08:41:57.314Z,78.23
2018-02-21T08:44:24.872Z,77.55
2018-02-21T08:46:52.424Z,75.57
2018-02-21T08:49:20.119Z,76.07
2018-02-21T08:51:47.652Z,79.40
2018-02-21T08:54:15.209Z,74.47
2018-02-21T08:56:42.723Z,74.47
2018-02-21T08:59:10.292Z,73.30
2018-02-21T09:01:37.829Z,72.93
2018-02-21T09:04:05.425Z,71.13
2018-02-21T09:06:32.960Z,73.13
2018-02-21T09:09:00.544Z,74.73
2018-02-21T09:11:28.088Z,69.47
2018-02-21T09:13:55.632Z,78.07
2018-02-21T09:16:23.203Z,77.93
2018-02-21T09:18:50.755Z,80.17
2018-02-21T09:21:18.321Z,80.55
2018-02-21T09:23:45.872Z,77.50
2018-02-21T09:26:13.432Z,70.87
2018-02-21T09:28:40.968Z,75.70
2018-02-21T09:31:08.517Z,76.27
2018-02-21T09:33:36.060Z,72.62
2018-02-21T09:36:03.723Z,68.23
2018-02-21T09:38:31.250Z,74.20
2018-02-21T09:40:58.831Z,72.47
2018-02-21T09:43:26.403Z,67.33
2018-02-21T09:45:53.928Z,68.00
2018-02-21T09:48:21.520Z,68.00
2018-02-21T09:50:49.053Z,66.10
2018-02-21T09:53:16.603Z,67.27
2018-02-21T09:55:44.124Z,68.70
2018-02-21T09:58:11.693Z,67.20
2018-02-21T10:00:39.215Z,66.97
2018-02-21T10:03:06.795Z,68.17
2018-02-21T10:05:34.345Z,71.07
2018-02-21T10:08:01.924Z,66.83
2018-02-21T10:10:29.440Z,63.15
2018-02-21T10:12:58.281Z,68.50
2018-02-21T10:15:25.839Z,65.78
2018-02-21T10:17:53.362Z,64.67
2018-02-21T10:20:20.959Z,64.93
2018-02-21T10:22:48.467Z,61.15
2018-02-21T10:25:17.418Z,63.90
2018-02-21T10:27:44.964Z,60.33
2018-02-21T10:30:12.532Z,60.87
2018-02-21T10:32:40.060Z,62.17
2018-02-21T10:35:08.696Z,58.23
2018-02-21T10:37:36.223Z,65.57
2018-02-21T10:40:04.069Z,66.77
2018-02-21T10:42:31.612Z,65.07
2018-02-21T10:44:59.258Z,68.53
2018-02-21T10:47:26.810Z,67.47
2018-02-21T10:49:54.348Z,67.23
2018-02-21T10:52:22.663Z,63.78
2018-02-21T10:54:50.767Z,61.00
2018-02-21T10:57:18.344Z,60.27
2018-02-21T10:59:46.011Z,61.53
2018-02-21T11:02:13.576Z,60.10
2018-02-21T11:04:41.104Z,60.50
2018-02-21T11:07:08.732Z,68.93
2018-02-21T11:09:36.406Z,65.37
2018-02-21T11:12:03.959Z,68.83
2018-02-21T11:14:31.475Z,65.37
2018-02-21T11:16:59.012Z,59.17
2018-02-21T11:19:26.568Z,60.43
2018-02-21T11:21:54.265Z,60.57
2018-02-21T11:24:21.879Z,59.97
2018-02-21T11:26:49.968Z,57.20
2018-02-21T11:29:17.526Z,60.90
2018-02-21T11:31:45.186Z,55.37
2018-02-21T11:34:13.366Z,57.33
2018-02-21T11:36:40.924Z,55.57
2018-02-21T11:39:08.499Z,57.80
2018-02-21T11:41:36.035Z,54.30
2018-02-21T11:44:04.088Z,62.47
2018-02-21T11:46:32.038Z,53.10
2018-02-21T11:49:00.535Z,52.47
2018-02-21T11:51:28.114Z,54.73
2018-02-21T11:53:55.629Z,52.33
2018-02-21T11:56:23.183Z,50.83
2018-02-21T11:58:50.707Z,50.60
2018-02-21T12:01:18.260Z,44.50
2018-02-21T12:03:45.819Z,44.22
2018-02-21T12:06:13.619Z,46.30
2018-02-21T12:08:41.208Z,48.07
2018-02-21T12:11:08.791Z,47.27
2018-02-21T12:13:36.361Z,42.50
2018-02-21T12:16:03.910Z,42.23
2018-02-21T12:18:34.667Z,46.60
2018-02-21T12:21:02.743Z,42.53
2018-02-21T12:23:30.329Z,41.28
2018-02-21T12:25:57.899Z,42.00
2018-02-21T12:28:25.838Z,41.73
2018-02-21T12:30:53.491Z,41.15
2018-02-21T12:33:21.319Z,42.30
2018-02-21T12:35:49.030Z,39.73
2018-02-21T12:38:16.650Z,37.45
2018-02-21T12:40:50.283Z,39.90
2018-02-21T12:43:19.652Z,43.97
2018-02-21T12:45:49.943Z,37.70
2018-02-21T12:48:22.308Z,37.03
2018-02-21T12:50:50.702Z,37.83
2018-02-21T12:53:19.230Z,40.23
2018-02-21T12:55:47.168Z,35.53
2018-02-21T12:58:21.494Z,37.03
2018-02-21T13:00:49.821Z,36.88
2018-02-21T13:03:19.887Z,35.13
2018-02-21T13:05:47.534Z,35.05
2018-02-21T13:08:15.120Z,39.93
2018-02-21T13:10:42.684Z,35.20
2018-02-21T13:13:10.235Z,36.40
2018-02-21T13:15:37.759Z,39.75
2018-02-21T13:18:05.331Z,39.40
2018-02-21T13:20:33.297Z,31.90
2018-02-21T13:23:00.898Z,31.60
2018-02-21T13:25:28.484Z,30.83
2018-02-21T13:27:56.888Z,31.10
2018-02-21T13:30:24.453Z,32.50
2018-02-21T13:32:51.987Z,27.08
2018-02-21T13:35:19.537Z,29.35
2018-02-21T13:37:47.106Z,27.63
2018-02-21T13:40:14.664Z,24.83
2018-02-21T13:42:42.210Z,26.37
2018-02-21T13:45:09.764Z,26.17
2018-02-21T13:47:37.321Z,25.57
2018-02-21T13:50:04.852Z,25.00
2018-02-21T13:52:32.406Z,27.27
2018-02-21T13:54:59.943Z,23.27
2018-02-21T13:57:27.497Z,26.00
2018-02-21T13:59:55.027Z,28.03
2018-02-21T14:02:22.589Z,25.80
2018-02-21T14:04:50.140Z,27.02
2018-02-21T14:07:17.669Z,30.07
2018-02-21T14:09:45.222Z,31.87
2018-02-21T14:12:12.792Z,33.63
2018-02-21T14:14:40.327Z,34.27
2018-02-21T14:17:07.872Z,34.27
2018-02-21T14:19:35.451Z,35.50
2018-02-21T14:22:02.981Z,35.60
2018-02-21T14:24:31.306Z,38.30
2018-02-21T14:26:59.005Z,49.27
2018-02-21T14:29:26.583Z,34.63
2018-02-21T14:31:54.120Z,33.78
2018-02-21T14:34:21.640Z,35.07
2018-02-21T14:36:49.196Z,37.20
2018-02-21T14:39:16.711Z,32.90
2018-02-21T14:41:44.264Z,30.97
2018-02-21T14:44:12.203Z,33.35
2018-02-21T14:46:39.749Z,31.87
2018-02-21T14:49:07.275Z,33.87
2018-02-21T14:51:34.835Z,34.77
2018-02-21T14:54:02.353Z,36.10
2018-02-21T14:56:29.913Z,32.97
2018-02-21T14:58:57.438Z,35.00
2018-02-21T15:01:25.862Z,34.07
2018-02-21T15:03:53.425Z,33.07
2018-02-21T15:06:21.146Z,30.57
2018-02-21T15:08:48.724Z,31.58
2018-02-21T15:11:16.254Z,29.70
2018-02-21T15:13:43.824Z,33.13
2018-02-21T15:16:26.808Z,36.03
2018-02-21T15:18:54.359Z,27.62
2018-02-21T15:21:21.887Z,30.80
2018-02-21T15:23:49.465Z,30.70
2018-02-21T15:26:16.988Z,34.05
2018-02-21T15:28:44.515Z,34.10
2018-02-21T15:31:12.434Z,29.98
2018-02-21T15:33:39.964Z,31.43
2018-02-21T15:36:07.520Z,32.27
2018-02-21T15:38:35.066Z,32.30
2018-02-21T15:41:02.623Z,35.33
2018-02-21T15:43:30.152Z,34.30
2018-02-21T15:45:57.712Z,35.07
2018-02-21T15:48:25.232Z,31.50
2018-02-21T15:50:52.770Z,34.35
2018-02-21T15:53:20.340Z,31.00
2018-02-21T15:55:47.899Z,34.10
2018-02-21T15:58:17.835Z,30.83
2018-02-21T16:00:45.352Z,32.80
2018-02-21T16:03:12.917Z,33.67
2018-02-21T16:05:40.435Z,40.75
2018-02-21T16:08:07.990Z,40.30
2018-02-21T16:10:38.642Z,39.83
2018-02-21T16:13:08.183Z,38.60
2018-02-21T16:15:36.469Z,42.13
2018-02-21T16:18:04.045Z,42.70
2018-02-21T16:20:31.562Z,41.97
2018-02-21T16:22:59.235Z,39.67
2018-02-21T16:25:26.904Z,42.87
2018-02-21T16:27:54.601Z,34.63
2018-02-21T16:30:22.522Z,34.83
2018-02-21T16:32:50.254Z,30.87
2018-02-21T16:35:18.524Z,30.47
2018-02-21T16:37:47.297Z,28.17
2018-02-21T16:40:15.316Z,29.17
2018-02-21T16:42:42.835Z,25.27
2018-02-21T16:45:12.498Z,29.83
2018-02-21T16:47:43.170Z,30.57
2018-02-21T16:50:11.889Z,35.40
2018-02-21T16:52:39.469Z,32.90
2018-02-21T16:55:08.252Z,33.13
2018-02-21T16:57:39.084Z,29.40
2018-02-21T17:00:09.419Z,31.57
2018-02-21T17:02:41.348Z,29.77
2018-02-21T17:05:11.534Z,28.37
2018-02-21T17:07:41.757Z,29.95
2018-02-21T17:10:09.518Z,32.50
2018-02-21T17:12:39.006Z,30.60
2018-02-21T17:15:08.848Z,32.77
2018-02-21T17:17:37.643Z,26.53
2018-02-21T17:20:06.745Z,28.83
2018-02-21T17:22:35.779Z,28.53
2018-02-21T17:25:05.550Z,32.50
2018-02-21T17:27:34.481Z,32.80
2018-02-21T17:30:03.120Z,35.23
2018-02-21T17:32:32.654Z,32.22
2018-02-21T17:35:03.980Z,33.72
2018-02-21T17:37:33.454Z,35.47
2018-02-21T17:40:03.893Z,29.33
2018-02-21T17:42:33.099Z,31.87
2018-02-21T17:45:00.939Z,31.37
2018-02-21T17:47:28.469Z,29.80
2018-02-21T17:49:58.057Z,33.13
2018-02-21T17:52:26.058Z,33.20
2018-02-21T17:54:54.056Z,28.73
2018-02-21T17:57:21.950Z,29.00
2018-02-21T17:59:50.869Z,33.22
2018-02-21T18:02:18.997Z,29.67
2018-02-21T18:04:46.680Z,30.53
2018-02-21T18:07:14.651Z,29.33
2018-02-21T18:09:42.220Z,32.93
2018-02-21T18:12:09.784Z,32.70
2018-02-21T18:14:37.312Z,35.67
2018-02-21T18:17:04.888Z,33.43
2018-02-21T18:19:32.424Z,28.20
2018-02-21T18:22:00.140Z,29.90
2018-02-21T18:24:28.103Z,37.90
2018-02-21T18:26:56.246Z,31.33
2018-02-21T18:29:25.053Z,31.87
2018-02-21T18:31:52.579Z,34.92
2018-02-21T18:34:20.232Z,35.77
2018-02-21T18:36:47.953Z,37.72
2018-02-21T18:39:16.110Z,38.70
2018-02-21T18:41:43.747Z,36.83
2018-02-21T18:44:11.268Z,38.93
2018-02-21T18:46:39.269Z,41.20
2018-02-21T18:49:07.397Z,42.50
2018-02-21T18:51:35.024Z,41.20
2018-02-21T18:54:02.554Z,42.25
2018-02-21T18:56:30.151Z,40.60
2018-02-21T18:58:57.683Z,37.58
2018-02-21T19:01:25.340Z,41.90
2018-02-21T19:03:52.884Z,43.38
2018-02-21T19:06:20.785Z,49.67
2018-02-21T19:08:48.724Z,59.28
2018-02-21T19:11:16.252Z,51.03
2018-02-21T19:13:43.824Z,45.90
2018-02-21T19:16:11.669Z,47.17
2018-02-21T19:18:41.866Z,40.53
2018-02-21T19:21:09.410Z,42.23
2018-02-21T19:23:37.900Z,45.37
2018-02-21T19:26:05.530Z,37.77
2018-02-21T19:28:35.876Z,42.97
2018-02-21T19:31:03.859Z,39.92
2018-02-21T19:33:31.664Z,37.67
2018-02-21T19:35:59.322Z,37.40
2018-02-21T19:38:26.872Z,40.20
2018-02-21T19:40:54.448Z,37.80
2018-02-21T19:43:21.986Z,35.70
2018-02-21T19:45:49.539Z,36.47
2018-02-21T19:48:19.178Z,36.73
2018-02-21T19:50:46.744Z,35.95
2018-02-21T19:53:14.794Z,38.17
2018-02-21T19:55:42.473Z,43.03
2018-02-21T19:58:11.012Z,37.80
2018-02-21T20:00:38.866Z,37.50
2018-02-21T20:03:09.813Z,37.23
2018-02-21T20:05:37.648Z,38.70
2018-02-21T20:08:05.186Z,42.80
2018-02-21T20:10:33.197Z,40.80
2018-02-21T20:13:00.879Z,44.50
2018-02-21T20:15:28.427Z,45.90
2018-02-21T20:17:55.952Z,46.17
2018-02-21T20:20:23.523Z,42.73
2018-02-21T20:22:53.811Z,46.53
2018-02-21T20:25:26.202Z,43.90
2018-02-21T20:27:54.000Z,46.53
2018-02-21T20:30:21.640Z,48.43
2018-02-21T20:32:51.765Z,48.20
2018-02-21T20:35:19.551Z,50.97
2018-02-21T20:37:47.153Z,45.23
2018-02-21T20:40:14.683Z,44.33
2018-02-21T20:42:42.283Z,40.87
2018-02-21T20:45:09.864Z,40.63
2018-02-21T20:47:37.435Z,41.87
2018-02-21T20:50:05.517Z,43.97
2018-02-21T20:52:39.782Z,41.97
2018-02-21T20:55:08.513Z,42.63
2018-02-21T20:57:36.196Z,43.57
2018-02-21T21:00:03.788Z,45.97
2018-02-21T21:02:31.378Z,43.97
2018-02-21T21:05:02.276Z,49.33
2018-02-21T21:07:29.983Z,41.97
2018-02-21T21:09:57.556Z,39.50
2018-02-21T21:12:25.124Z,41.40
2018-02-21T21:14:52.684Z,41.87
2018-02-21T21:17:21.517Z,42.65
2018-02-21T21:19:49.275Z,44.13
2018-02-21T21:22:16.865Z,66.47
2018-02-21T21:24:44.387Z,63.35
2018-02-21T21:27:11.943Z,46.73
2018-02-21T21:29:39.475Z,44.25
2018-02-21T21:32:07.047Z,41.53
2018-02-21T21:34:34.576Z,41.30
2018-02-21T21:37:02.145Z,38.90
2018-02-21T21:39:29.678Z,40.90
2018-02-21T21:41:57.308Z,37.17
2018-02-21T21:44:24.863Z,46.08
2018-02-21T21:46:52.392Z,40.63
2018-02-21T21:49:19.945Z,41.57
2018-02-21T21:51:47.475Z,44.13
2018-02-21T21:54:15.020Z,36.87
2018-02-21T21:56:42.539Z,39.30
2018-02-21T21:59:10.106Z,37.27
2018-02-21T22:01:40.087Z,45.47
2018-02-21T22:04:08.342Z,37.00
2018-02-21T22:06:37.079Z,39.10
2018-02-21T22:09:06.709Z,41.13
2018-02-21T22:11:35.284Z,39.03
2018-02-21T22:14:02.965Z,39.23
2018-02-21T22:16:30.543Z,35.77
2018-02-21T22:18:59.120Z,38.45
2018-02-21T22:21:28.122Z,40.90
2018-02-21T22:23:56.650Z,36.20
2018-02-21T22:26:25.380Z,40.58
2018-02-21T22:28:54.930Z,36.70
2018-02-21T22:31:22.835Z,40.67
2018-02-21T22:33:52.427Z,39.07
2018-02-21T22:36:20.730Z,37.40
2018-02-21T22:38:49.711Z,37.27
2018-02-21T22:41:17.266Z,40.57
2018-02-21T22:43:44.810Z,38.37
2018-02-21T22:46:12.347Z,37.07
2018-02-21T22:48:40.083Z,43.60
2018-02-21T22:51:07.756Z,44.67
2018-02-21T22:53:35.366Z,44.13
2018-02-21T22:56:03.006Z,43.67
2018-02-21T22:58:30.527Z,46.33
2018-02-21T23:00:58.184Z,46.03
2018-02-21T23:03:25.957Z,45.57
2018-02-21T23:05:54.626Z,46.80
2018-02-21T23:08:24.309Z,43.50
2018-02-21T23:10:51.986Z,49.42
2018-02-21T23:13:20.982Z,51.93
2018-02-21T23:15:48.568Z,53.73
2018-02-21T23:18:16.122Z,53.93
2018-02-21T23:20:43.635Z,53.17
2018-02-21T23:23:11.191Z,51.90
2018-02-21T23:25:38.736Z,49.93
2018-02-21T23:28:06.310Z,48.72
2018-02-21T23:30:34.681Z,58.70
2018-02-21T23:33:02.216Z,56.50
2018-02-21T23:35:29.787Z,54.60
2018-02-21T23:37:58.342Z,57.58
2018-02-21T23:40:25.896Z,56.93
2018-02-21T23:42:53.440Z,59.40
2018-02-21T23:45:20.999Z,57.80
2018-02-21T23:47:48.530Z,55.53
2018-02-21T23:50:16.092Z,54.20
2018-02-21T23:52:43.623Z,52.53
2018-02-21T23:55:11.195Z,53.47
2018-02-21T23:57:38.908Z,55.27
